createdAt,value
2019-03-24T00:00:00.654Z,99.90
2019-03-24T00:02:30.866Z,99.90
2019-03-24T00:05:03.411Z,99.90
2019-03-24T00:07:33.639Z,99.90
2019-03-24T00:10:04.015Z,99.90
2019-03-24T00:12:34.115Z,99.90
2019-03-24T00:15:04.781Z,99.90
2019-03-24T00:17:34.905Z,99.90
2019-03-24T00:20:05.887Z,99.90
2019-03-24T00:22:36.088Z,99.90
2019-03-24T00:25:06.667Z,99.90
2019-03-24T00:27:36.897Z,99.90
2019-03-24T00:30:08.742Z,99.90
2019-03-24T00:32:38.968Z,99.90
2019-03-24T00:35:09.307Z,99.90
2019-03-24T00:37:39.485Z,99.90
2019-03-24T00:40:09.958Z,99.90
2019-03-24T00:42:40.105Z,99.90
2019-03-24T00:45:10.897Z,99.90
2019-03-24T00:47:41.076Z,99.90
2019-03-24T00:50:11.686Z,99.90
2019-03-24T00:52:41.785Z,99.90
2019-03-24T00:55:12.091Z,99.90
2019-03-24T00:57:42.213Z,99.90
2019-03-24T01:00:13.960Z,99.90
2019-03-24T01:02:44.032Z,99.90
2019-03-24T01:05:14.242Z,99.90
2019-03-24T01:07:44.287Z,99.90
2019-03-24T01:10:14.526Z,99.90
2019-03-24T01:12:44.596Z,99.90
2019-03-24T01:15:14.746Z,99.90
2019-03-24T01:17:44.808Z,99.90
2019-03-24T01:20:15.097Z,99.90
2019-03-24T01:22:45.328Z,99.90
2019-03-24T01:25:15.618Z,99.90
2019-03-24T01:27:45.882Z,99.90
2019-03-24T01:30:16.439Z,99.90
2019-03-24T01:32:46.615Z,99.90
2019-03-24T01:35:16.718Z,99.90
2019-03-24T01:37:46.980Z,99.90
2019-03-24T01:40:17.094Z,99.90
2019-03-24T01:42:47.206Z,99.90
2019-03-24T01:45:17.393Z,99.90
2019-03-24T01:47:47.527Z,99.90
2019-03-24T01:50:17.777Z,99.90
2019-03-24T01:52:47.892Z,99.90
2019-03-24T01:55:18.046Z,99.90
2019-03-24T01:57:48.184Z,99.90
2019-03-24T02:00:18.362Z,99.90
2019-03-24T02:02:48.508Z,99.90
2019-03-24T02:05:18.717Z,99.90
2019-03-24T02:07:48.843Z,99.90
2019-03-24T02:10:19.216Z,99.90
2019-03-24T02:12:49.306Z,99.90
2019-03-24T02:15:19.547Z,99.90
2019-03-24T02:17:49.614Z,99.90
2019-03-24T02:20:19.781Z,99.90
2019-03-24T02:22:49.972Z,99.90
2019-03-24T02:25:20.104Z,99.90
2019-03-24T02:27:50.231Z,99.90
2019-03-24T02:30:20.410Z,99.90
2019-03-24T02:32:50.576Z,99.90
2019-03-24T02:35:21.245Z,99.90
2019-03-24T02:37:51.457Z,99.90
2019-03-24T02:40:21.630Z,99.90
2019-03-24T02:42:51.765Z,99.90
2019-03-24T02:45:22.017Z,99.90
2019-03-24T02:47:52.097Z,99.90
2019-03-24T02:50:22.278Z,99.90
2019-03-24T02:52:52.418Z,99.90
2019-03-24T02:55:22.548Z,99.90
2019-03-24T02:57:52.679Z,99.90
2019-03-24T03:00:22.779Z,99.90
2019-03-24T03:02:52.888Z,99.90
2019-03-24T03:05:23.525Z,99.90
2019-03-24T03:07:53.679Z,99.90
2019-03-24T03:10:23.910Z,99.90
2019-03-24T03:12:54.001Z,99.90
2019-03-24T03:15:24.143Z,99.90
2019-03-24T03:17:54.292Z,99.90
2019-03-24T03:20:24.401Z,99.90
2019-03-24T03:22:54.647Z,99.90
2019-03-24T03:25:24.768Z,99.90
2019-03-24T03:27:54.939Z,99.90
2019-03-24T03:30:25.103Z,99.90
2019-03-24T03:32:55.240Z,99.90
2019-03-24T03:35:25.497Z,99.90
2019-03-24T03:37:55.667Z,99.90
2019-03-24T03:40:25.830Z,99.90
2019-03-24T03:42:55.864Z,99.90
2019-03-24T03:45:29.144Z,99.90
2019-03-24T03:47:59.224Z,99.90
2019-03-24T03:50:29.381Z,99.90
2019-03-24T03:52:59.617Z,99.90
2019-03-24T03:55:29.796Z,99.90
2019-03-24T03:58:00.024Z,99.90
2019-03-24T04:00:37.293Z,99.90
2019-03-24T04:03:07.932Z,99.90
2019-03-24T04:05:38.127Z,99.90
2019-03-24T04:08:08.340Z,99.90
2019-03-24T04:10:38.444Z,99.90
2019-03-24T04:13:08.636Z,99.90
2019-03-24T04:15:39.014Z,99.90
2019-03-24T04:18:09.093Z,99.90
2019-03-24T04:20:39.370Z,99.90
2019-03-24T04:23:09.514Z,99.90
2019-03-24T04:25:39.747Z,99.90
2019-03-24T04:28:09.983Z,99.90
2019-03-24T04:30:40.223Z,99.90
2019-03-24T04:33:10.479Z,99.90
2019-03-24T04:35:40.774Z,99.90
2019-03-24T04:38:10.950Z,99.90
2019-03-24T04:40:41.208Z,99.90
2019-03-24T04:43:11.491Z,99.90
2019-03-24T04:45:41.576Z,99.90
2019-03-24T04:48:11.783Z,99.90
2019-03-24T04:50:42.079Z,99.90
2019-03-24T04:53:12.267Z,99.90
2019-03-24T04:55:42.484Z,99.90
2019-03-24T04:58:12.585Z,99.90
2019-03-24T05:00:42.771Z,99.90
2019-03-24T05:03:12.991Z,99.90
2019-03-24T05:05:43.715Z,99.90
2019-03-24T05:08:14.592Z,99.90
2019-03-24T05:10:44.882Z,99.90
2019-03-24T05:13:15.056Z,99.90
2019-03-24T05:15:45.366Z,99.90
2019-03-24T05:18:15.695Z,99.90
2019-03-24T05:20:46.035Z,99.90
2019-03-24T05:23:16.186Z,99.90
2019-03-24T05:25:46.443Z,99.90
2019-03-24T05:28:16.687Z,99.90
2019-03-24T05:30:46.912Z,99.90
2019-03-24T05:33:17.001Z,99.90
2019-03-24T05:35:47.324Z,99.90
2019-03-24T05:38:17.449Z,99.90
2019-03-24T05:40:48.495Z,99.90
2019-03-24T05:43:18.751Z,99.90
2019-03-24T05:45:48.896Z,99.90
2019-03-24T05:48:19.079Z,99.90
2019-03-24T05:50:49.352Z,99.90
2019-03-24T05:53:19.497Z,99.90
2019-03-24T05:55:49.719Z,99.90
2019-03-24T05:58:20.031Z,99.90
2019-03-24T06:00:50.303Z,99.90
2019-03-24T06:03:20.679Z,99.90
2019-03-24T06:05:50.823Z,99.90
2019-03-24T06:08:20.997Z,99.90
2019-03-24T06:10:51.270Z,99.90
2019-03-24T06:13:21.573Z,99.90
2019-03-24T06:15:51.860Z,99.90
2019-03-24T06:18:22.121Z,99.90
2019-03-24T06:20:52.330Z,99.90
2019-03-24T06:23:22.575Z,99.90
2019-03-24T06:25:52.782Z,99.90
2019-03-24T06:28:23.073Z,99.90
2019-03-24T06:30:53.311Z,99.90
2019-03-24T06:33:23.289Z,99.90
2019-03-24T06:35:53.486Z,99.90
2019-03-24T06:38:23.655Z,99.90
2019-03-24T06:40:53.991Z,99.90
2019-03-24T06:43:24.233Z,99.90
2019-03-24T06:45:54.410Z,99.90
2019-03-24T06:48:24.564Z,99.90
2019-03-24T06:50:54.802Z,99.90
2019-03-24T06:53:25.015Z,99.90
2019-03-24T06:55:55.078Z,99.90
2019-03-24T06:58:25.229Z,99.90
2019-03-24T07:00:55.582Z,99.90
2019-03-24T07:03:25.824Z,99.90
2019-03-24T07:05:55.960Z,99.90
2019-03-24T07:08:26.254Z,99.90
2019-03-24T07:10:56.440Z,99.90
2019-03-24T07:13:26.607Z,99.90
2019-03-24T07:15:56.743Z,99.90
2019-03-24T07:18:26.990Z,99.90
2019-03-24T07:20:57.264Z,99.90
2019-03-24T07:23:27.526Z,99.90
2019-03-24T07:25:57.760Z,99.90
2019-03-24T07:28:27.941Z,99.90
2019-03-24T07:30:58.407Z,99.90
2019-03-24T07:33:28.544Z,99.90
2019-03-24T07:35:58.663Z,99.90
2019-03-24T07:38:28.847Z,99.90
2019-03-24T07:40:59.017Z,99.90
2019-03-24T07:43:29.270Z,99.90
2019-03-24T07:45:59.571Z,99.90
2019-03-24T07:48:29.718Z,99.90
2019-03-24T07:50:59.869Z,99.90
2019-03-24T07:53:30.009Z,99.90
2019-03-24T07:56:00.102Z,99.90
2019-03-24T07:58:30.185Z,99.90
2019-03-24T08:01:00.238Z,99.90
2019-03-24T08:03:30.470Z,99.90
2019-03-24T08:06:00.641Z,99.90
2019-03-24T08:08:30.828Z,99.90
2019-03-24T08:11:01.001Z,99.90
2019-03-24T08:13:31.094Z,99.90
2019-03-24T08:16:01.219Z,99.90
2019-03-24T08:18:31.331Z,99.90
2019-03-24T08:21:01.545Z,99.90
2019-03-24T08:23:31.804Z,99.90
2019-03-24T08:26:01.939Z,99.90
2019-03-24T08:28:32.011Z,99.90
2019-03-24T08:31:02.262Z,99.90
2019-03-24T08:33:32.429Z,99.90
2019-03-24T08:36:02.621Z,99.90
2019-03-24T08:38:32.758Z,99.90
2019-03-24T08:41:02.858Z,99.90
2019-03-24T08:43:33.047Z,99.90
2019-03-24T08:46:03.328Z,99.90
2019-03-24T08:48:40.892Z,99.90
2019-03-24T08:51:05.307Z,99.90
2019-03-24T08:53:35.525Z,99.90
2019-03-24T08:56:05.806Z,99.90
2019-03-24T08:58:35.996Z,99.90
2019-03-24T09:01:06.171Z,99.90
2019-03-24T09:03:36.420Z,99.90
2019-03-24T09:06:06.789Z,99.90
2019-03-24T09:08:37.023Z,99.90
2019-03-24T09:11:07.131Z,99.90
2019-03-24T09:13:37.262Z,99.90
2019-03-24T09:16:08.123Z,99.90
2019-03-24T09:18:38.280Z,99.90
2019-03-24T09:21:08.461Z,99.90
2019-03-24T09:23:38.674Z,99.90
2019-03-24T09:26:09.056Z,99.90
2019-03-24T09:28:39.218Z,99.90
2019-03-24T09:31:09.472Z,99.90
2019-03-24T09:33:39.681Z,99.90
2019-03-24T09:36:10.017Z,99.90
2019-03-24T09:38:40.172Z,99.90
2019-03-24T09:41:10.486Z,99.90
2019-03-24T09:43:40.612Z,99.90
2019-03-24T09:46:10.853Z,99.90
2019-03-24T09:48:41.033Z,99.90
2019-03-24T09:51:12.286Z,99.90
2019-03-24T09:53:42.364Z,99.90
2019-03-24T09:56:12.556Z,99.90
2019-03-24T09:58:42.716Z,99.90
2019-03-24T10:01:12.808Z,99.90
2019-03-24T10:03:42.924Z,99.90
2019-03-24T10:06:15.921Z,99.90
2019-03-24T10:08:47.281Z,99.90
2019-03-24T10:11:17.636Z,99.90
2019-03-24T10:13:47.876Z,99.90
2019-03-24T10:16:18.188Z,99.90
2019-03-24T10:18:48.252Z,99.90
2019-03-24T10:21:18.432Z,99.90
2019-03-24T10:23:48.587Z,99.90
2019-03-24T10:26:18.892Z,99.90
2019-03-24T10:28:49.317Z,99.90
2019-03-24T10:31:19.459Z,99.90
2019-03-24T10:34:05.596Z,99.90
2019-03-24T10:36:35.628Z,99.90
2019-03-24T10:39:06.552Z,99.90
2019-03-24T10:41:36.840Z,99.90
2019-03-24T10:44:07.073Z,99.90
2019-03-24T10:46:37.280Z,99.90
2019-03-24T10:49:07.484Z,99.90
2019-03-24T10:51:38.058Z,99.90
2019-03-24T10:54:08.293Z,99.90
2019-03-24T10:56:38.656Z,99.90
2019-03-24T10:59:08.978Z,99.90
2019-03-24T11:01:39.121Z,99.90
2019-03-24T11:04:09.231Z,99.50
2019-03-24T11:06:39.744Z,98.00
2019-03-24T11:09:10.077Z,97.20
2019-03-24T11:11:40.286Z,97.80
2019-03-24T11:14:10.393Z,94.40
2019-03-24T11:16:40.659Z,94.20
2019-03-24T11:19:10.975Z,95.90
2019-03-24T11:21:44.003Z,94.40
2019-03-24T11:24:14.253Z,94.00
2019-03-24T11:26:44.455Z,94.40
2019-03-24T11:29:14.695Z,96.40
2019-03-24T11:31:44.835Z,94.50
2019-03-24T11:34:14.992Z,97.00
2019-03-24T11:36:45.099Z,99.90
2019-03-24T11:39:15.315Z,99.90
2019-03-24T11:41:45.612Z,99.90
2019-03-24T11:44:15.807Z,99.90
2019-03-24T11:46:46.034Z,99.90
2019-03-24T11:49:19.507Z,99.90
2019-03-24T11:51:49.796Z,99.90
2019-03-24T11:54:19.943Z,99.90
2019-03-24T11:56:50.209Z,99.30
2019-03-24T11:59:20.409Z,96.70
2019-03-24T12:01:50.581Z,96.70
2019-03-24T12:04:20.841Z,98.80
2019-03-24T12:06:51.054Z,98.10
2019-03-24T12:09:41.314Z,96.50
2019-03-24T12:12:11.532Z,95.10
2019-03-24T12:14:41.625Z,94.50
2019-03-24T12:17:11.940Z,94.10
2019-03-24T12:19:42.055Z,96.50
2019-03-24T12:22:12.238Z,96.50
2019-03-24T12:24:42.456Z,93.10
2019-03-24T12:27:12.585Z,90.80
2019-03-24T12:29:42.741Z,93.90
2019-03-24T12:32:12.809Z,86.60
2019-03-24T12:34:42.930Z,87.70
2019-03-24T12:37:13.117Z,93.30
2019-03-24T12:39:43.293Z,95.30
2019-03-24T12:42:13.543Z,95.00
2019-03-24T12:44:43.728Z,93.70
2019-03-24T12:47:14.040Z,96.10
2019-03-24T12:49:44.282Z,96.40
2019-03-24T12:52:16.558Z,98.00
2019-03-24T12:54:46.571Z,96.90
2019-03-24T12:57:16.824Z,97.40
2019-03-24T12:59:47.088Z,95.70
2019-03-24T13:02:17.361Z,95.20
2019-03-24T13:04:47.451Z,99.70
2019-03-24T13:07:17.616Z,99.90
2019-03-24T13:09:47.745Z,99.90
2019-03-24T13:12:17.984Z,99.90
2019-03-24T13:14:49.433Z,99.90
2019-03-24T13:17:19.621Z,99.90
2019-03-24T13:19:49.763Z,99.90
2019-03-24T13:22:19.950Z,99.90
2019-03-24T13:24:50.080Z,99.90
2019-03-24T13:27:20.274Z,99.90
2019-03-24T13:29:50.611Z,99.90
2019-03-24T13:32:20.850Z,99.40
2019-03-24T13:34:51.034Z,95.30
2019-03-24T13:37:21.190Z,92.30
2019-03-24T13:39:51.461Z,94.10
2019-03-24T13:42:21.659Z,93.30
2019-03-24T13:44:51.948Z,90.80
2019-03-24T13:47:22.119Z,90.30
2019-03-24T13:49:52.352Z,91.90
2019-03-24T13:52:22.574Z,96.00
2019-03-24T13:54:52.790Z,99.50
2019-03-24T13:57:22.967Z,99.10
2019-03-24T13:59:53.162Z,99.90
2019-03-24T14:02:23.291Z,99.90
2019-03-24T14:04:53.525Z,99.90
2019-03-24T14:07:23.653Z,99.90
2019-03-24T14:09:53.891Z,99.90
2019-03-24T14:12:24.316Z,99.90
2019-03-24T14:14:54.518Z,99.90
2019-03-24T14:17:24.768Z,99.90
2019-03-24T14:19:55.027Z,99.90
2019-03-24T14:22:25.326Z,99.90
2019-03-24T14:24:55.484Z,99.90
2019-03-24T14:27:25.698Z,99.90
2019-03-24T14:29:56.023Z,99.90
2019-03-24T14:32:26.305Z,99.90
2019-03-24T14:34:56.470Z,99.90
2019-03-24T14:37:26.724Z,99.90
2019-03-24T14:39:56.901Z,99.90
2019-03-24T14:42:27.089Z,99.90
2019-03-24T14:44:57.168Z,99.90
2019-03-24T14:47:27.459Z,99.90
2019-03-24T14:49:57.752Z,99.90
2019-03-24T14:52:27.891Z,99.30
2019-03-24T14:54:58.006Z,98.30
2019-03-24T14:57:28.266Z,96.30
2019-03-24T14:59:58.411Z,95.60
2019-03-24T15:02:28.665Z,96.20
2019-03-24T15:04:59.030Z,97.00
2019-03-24T15:07:29.207Z,98.10
2019-03-24T15:09:59.327Z,98.90
2019-03-24T15:12:29.467Z,99.80
2019-03-24T15:14:59.715Z,99.90
2019-03-24T15:17:29.984Z,99.90
2019-03-24T15:20:00.243Z,99.90
2019-03-24T15:22:30.525Z,99.90
2019-03-24T15:25:00.725Z,99.90
2019-03-24T15:27:31.003Z,99.90
2019-03-24T15:30:01.061Z,99.90
2019-03-24T15:32:31.250Z,99.90
2019-03-24T15:35:01.516Z,99.90
2019-03-24T15:37:31.847Z,99.90
2019-03-24T15:40:02.187Z,98.60
2019-03-24T15:42:32.464Z,98.60
2019-03-24T15:45:02.647Z,98.20
2019-03-24T15:47:32.899Z,98.10
2019-03-24T15:50:03.028Z,98.40
2019-03-24T15:52:33.173Z,97.30
2019-03-24T15:55:03.327Z,95.80
2019-03-24T15:57:33.575Z,96.60
2019-03-24T16:00:04.389Z,96.10
2019-03-24T16:02:34.625Z,95.90
2019-03-24T16:05:05.207Z,94.60
2019-03-24T16:07:35.363Z,95.40
2019-03-24T16:10:06.249Z,96.40
2019-03-24T16:12:36.430Z,96.40
2019-03-24T16:15:08.078Z,96.10
2019-03-24T16:17:55.298Z,95.00
2019-03-24T16:20:25.611Z,93.50
2019-03-24T16:22:55.915Z,93.80
2019-03-24T16:25:26.128Z,95.50
2019-03-24T16:27:56.440Z,96.50
2019-03-24T16:30:26.605Z,97.40
2019-03-24T16:32:56.942Z,97.50
2019-03-24T16:35:27.162Z,98.20
2019-03-24T16:37:57.413Z,99.30
2019-03-24T16:40:27.678Z,99.60
2019-03-24T16:42:57.925Z,99.50
2019-03-24T16:45:28.142Z,99.90
2019-03-24T16:47:58.410Z,99.90
2019-03-24T16:50:28.567Z,99.90
2019-03-24T16:52:58.866Z,99.90
2019-03-24T16:55:29.182Z,99.90
2019-03-24T16:57:59.383Z,99.90
2019-03-24T17:00:29.661Z,99.90
2019-03-24T17:02:59.853Z,99.90
2019-03-24T17:05:30.095Z,99.90
2019-03-24T17:08:00.368Z,99.90
2019-03-24T17:10:30.657Z,99.90
2019-03-24T17:13:03.665Z,99.90
2019-03-24T17:15:33.884Z,99.90
2019-03-24T17:18:04.448Z,99.90
2019-03-24T17:20:34.738Z,99.90
2019-03-24T17:23:05.024Z,99.90
2019-03-24T17:25:35.549Z,99.90
2019-03-24T17:28:05.856Z,99.90
2019-03-24T17:30:36.164Z,99.90
2019-03-24T17:33:06.531Z,99.90
2019-03-24T17:35:38.370Z,99.90
2019-03-24T17:38:08.670Z,99.90
2019-03-24T17:40:39.296Z,99.90
2019-03-24T17:43:09.690Z,99.90
2019-03-24T17:45:40.273Z,99.90
2019-03-24T17:48:10.501Z,99.90
2019-03-24T17:50:40.928Z,99.90
2019-03-24T17:53:11.145Z,99.90
2019-03-24T17:55:41.495Z,99.90
2019-03-24T17:58:11.621Z,99.90
2019-03-24T18:00:44.608Z,99.90
2019-03-24T18:03:15.011Z,99.90
2019-03-24T18:05:45.289Z,99.90
2019-03-24T18:08:15.498Z,99.90
2019-03-24T18:10:45.738Z,99.90
2019-03-24T18:13:16.236Z,99.90
2019-03-24T18:15:46.499Z,99.90
2019-03-24T18:18:16.855Z,99.90
2019-03-24T18:20:47.171Z,99.90
2019-03-24T18:23:20.736Z,99.90
2019-03-24T18:25:50.945Z,99.90
2019-03-24T18:28:21.238Z,99.90
2019-03-24T18:30:51.500Z,99.90
2019-03-24T18:33:21.604Z,99.90
2019-03-24T18:35:51.913Z,99.90
2019-03-24T18:38:22.097Z,99.90
2019-03-24T18:40:52.325Z,99.90
2019-03-24T18:43:22.673Z,99.90
2019-03-24T18:45:52.862Z,99.90
2019-03-24T18:48:33.447Z,99.90
2019-03-24T18:51:03.701Z,99.90
2019-03-24T18:53:33.972Z,99.90
2019-03-24T18:56:04.335Z,99.90
2019-03-24T18:58:34.565Z,99.90
2019-03-24T19:01:04.866Z,99.90
2019-03-24T19:07:12.677Z,99.90
2019-03-24T19:09:42.940Z,99.90
2019-03-24T19:12:13.156Z,99.90
2019-03-24T19:14:43.461Z,99.90
2019-03-24T19:17:13.779Z,99.90
2019-03-24T19:19:44.031Z,99.90
2019-03-24T19:22:14.335Z,99.90
2019-03-24T19:24:44.593Z,99.90
2019-03-24T19:27:14.825Z,99.90
2019-03-24T19:29:45.082Z,99.90
2019-03-24T19:32:15.323Z,99.90
2019-03-24T19:34:45.602Z,99.90
2019-03-24T19:37:16.317Z,99.90
2019-03-24T19:39:46.660Z,99.90
2019-03-24T19:42:16.838Z,99.90
2019-03-24T19:44:46.955Z,99.90
2019-03-24T19:47:17.196Z,99.90
2019-03-24T19:49:47.540Z,99.90
2019-03-24T19:52:17.706Z,99.90
2019-03-24T19:54:47.826Z,99.90
2019-03-24T19:57:17.992Z,99.90
2019-03-24T19:59:48.152Z,99.90
2019-03-24T20:02:18.302Z,99.90
2019-03-24T20:04:48.518Z,99.90
2019-03-24T20:07:18.741Z,99.90
2019-03-24T20:09:48.874Z,99.90
2019-03-24T20:12:19.037Z,99.90
2019-03-24T20:14:49.355Z,99.90
2019-03-24T20:17:19.474Z,99.90
2019-03-24T20:19:49.732Z,99.90
2019-03-24T20:22:19.965Z,99.90
2019-03-24T20:24:50.134Z,99.90
2019-03-24T20:27:20.390Z,99.90
2019-03-24T20:29:50.678Z,99.90
2019-03-24T20:32:20.829Z,99.90
2019-03-24T20:34:51.156Z,99.90
2019-03-24T20:37:21.427Z,99.90
2019-03-24T20:39:51.795Z,99.90
2019-03-24T20:42:24.572Z,99.90
2019-03-24T20:44:54.705Z,99.90
2019-03-24T20:47:25.021Z,99.90
2019-03-24T20:49:55.246Z,99.90
2019-03-24T20:52:25.472Z,99.90
2019-03-24T20:54:55.689Z,99.90
2019-03-24T20:57:26.053Z,99.90
2019-03-24T20:59:56.160Z,99.90
2019-03-24T21:02:26.480Z,99.90
2019-03-24T21:04:56.667Z,99.90
2019-03-24T21:07:26.943Z,99.90
2019-03-24T21:09:57.183Z,99.90
2019-03-24T21:12:27.432Z,99.90
2019-03-24T21:14:57.753Z,99.90
2019-03-24T21:17:27.976Z,99.90
2019-03-24T21:19:58.084Z,99.90
2019-03-24T21:22:28.382Z,99.90
2019-03-24T21:24:58.506Z,99.90
2019-03-24T21:27:28.626Z,99.90
2019-03-24T21:29:58.898Z,99.90
2019-03-24T21:32:29.074Z,99.90
2019-03-24T21:34:59.172Z,99.90
2019-03-24T21:37:29.555Z,99.90
2019-03-24T21:39:59.709Z,99.90
2019-03-24T21:42:29.866Z,99.90
2019-03-24T21:44:59.982Z,99.90
2019-03-24T21:47:30.135Z,99.90
2019-03-24T21:50:00.422Z,99.90
2019-03-24T21:52:30.602Z,99.90
2019-03-24T21:55:00.800Z,99.90
2019-03-24T21:57:31.138Z,99.90
2019-03-24T22:00:01.290Z,99.90
2019-03-24T22:02:31.450Z,99.90
2019-03-24T22:05:01.641Z,99.90
2019-03-24T22:07:31.813Z,99.90
2019-03-24T22:10:02.014Z,99.90
2019-03-24T22:12:32.300Z,99.90
2019-03-24T22:15:02.507Z,99.90
2019-03-24T22:17:32.614Z,99.90
2019-03-24T22:20:02.676Z,99.90
2019-03-24T22:22:32.849Z,99.90
2019-03-24T22:25:02.982Z,99.90
2019-03-24T22:27:33.174Z,99.90
2019-03-24T22:30:03.497Z,99.90
2019-03-24T22:32:33.697Z,99.90
2019-03-24T22:35:03.935Z,99.90
2019-03-24T22:37:34.014Z,99.90
2019-03-24T22:40:04.147Z,99.90
2019-03-24T22:42:34.473Z,99.90
2019-03-24T22:45:04.564Z,99.90
2019-03-24T22:47:34.697Z,99.90
2019-03-24T22:50:05.224Z,99.90
2019-03-24T22:52:35.560Z,99.90
2019-03-24T22:55:06.340Z,99.90
2019-03-24T22:57:36.408Z,99.90
2019-03-24T23:00:11.703Z,99.90
2019-03-24T23:02:42.321Z,99.90
2019-03-24T23:05:12.490Z,99.90
2019-03-24T23:07:42.762Z,99.90
2019-03-24T23:10:13.008Z,99.90
2019-03-24T23:12:43.176Z,99.90
2019-03-24T23:15:13.473Z,99.90
2019-03-24T23:17:43.559Z,99.90
2019-03-24T23:20:13.811Z,99.90
2019-03-24T23:22:44.196Z,99.90
2019-03-24T23:25:14.479Z,99.90
2019-03-24T23:27:44.645Z,99.90
2019-03-24T23:30:15.146Z,99.90
2019-03-24T23:32:45.372Z,99.90
2019-03-24T23:35:15.577Z,99.90
2019-03-24T23:37:45.850Z,99.90
2019-03-24T23:40:16.186Z,99.90
2019-03-24T23:42:46.309Z,99.90
2019-03-24T23:45:16.463Z,99.90
2019-03-24T23:47:46.608Z,99.90
2019-03-24T23:50:16.841Z,99.90
2019-03-24T23:52:47.017Z,99.90
2019-03-24T23:55:17.226Z,99.90
2019-03-24T23:57:47.333Z,99.90
